Time;durP1;ratioP1;P1;durP2;ratioP2;P2;SDS_P1;SDS_P2;PMS_P1;PMS_P2;Temp;Humidity;BMP_temperature;BMP_pressure;BME280_temperature;BME280_humidity;BME280_pressure;Samples;Min_cycle;Max_cycle;Signal;HPM_P1;HPM_P2
2022/05/08 00:00:12;;;;;;;15.85;7.20;;;;;;;;;;5108752;28;20046;-67
2022/05/08 00:02:40;;;;;;;12.77;6.25;;;;;;;;;;5106616;28;20049;-67
2022/05/08 00:05:07;;;;;;;12.48;5.70;;;;;;;;;;5099244;28;20481;-67
2022/05/08 00:07:33;;;;;;;15.48;5.32;;;;;;;;;;5108213;28;20061;-66
2022/05/08 00:09:59;;;;;;;21.13;6.97;;;;;;;;;;5108001;28;20088;-66
2022/05/08 00:12:26;;;;;;;13.65;5.45;;;;;;;;;;5104329;28;20473;-66
2022/05/08 00:14:52;;;;;;;17.65;6.05;;;;;;;;;;5107153;28;20036;-67
2022/05/08 00:17:18;;;;;;;14.45;5.82;;;;;;;;;;5107100;28;20043;-67
2022/05/08 00:19:47;;;;;;;15.77;5.85;;;;;;;;;;5105279;28;20050;-67
2022/05/08 00:22:13;;;;;;;15.52;6.20;;;;;;;;;;5107714;28;20036;-67
2022/05/08 00:24:39;;;;;;;19.02;6.82;;;;;;;;;;5108813;28;20039;-66
2022/05/08 00:27:06;;;;;;;11.98;6.18;;;;;;;;;;5107446;28;20039;-67
2022/05/08 00:29:32;;;;;;;17.77;5.85;;;;;;;;;;5108563;28;20036;-67
2022/05/08 00:31:58;;;;;;;23.90;6.50;;;;;;;;;;5107133;28;20043;-67
2022/05/08 00:34:24;;;;;;;16.30;5.68;;;;;;;;;;5106121;28;20047;-67
2022/05/08 00:36:51;;;;;;;14.02;5.75;;;;;;;;;;5107399;28;20518;-67
2022/05/08 00:39:18;;;;;;;12.05;5.47;;;;;;;;;;5090291;28;20048;-67
2022/05/08 00:41:47;;;;;;;20.42;5.45;;;;;;;;;;5108082;28;20036;-67
2022/05/08 00:44:14;;;;;;;12.07;5.63;;;;;;;;;;5108491;28;20067;-67
2022/05/08 00:46:40;;;;;;;15.07;6.22;;;;;;;;;;5107219;28;20130;-67
2022/05/08 00:49:07;;;;;;;17.25;5.55;;;;;;;;;;5106294;28;20058;-67
2022/05/08 00:51:34;;;;;;;21.20;6.47;;;;;;;;;;5071910;28;20044;-67
2022/05/08 00:54:02;;;;;;;12.40;5.25;;;;;;;;;;5111080;28;20503;-67
2022/05/08 00:56:29;;;;;;;18.65;6.68;;;;;;;;;;5111141;28;20040;-67
2022/05/08 00:58:56;;;;;;;15.32;6.07;;;;;;;;;;5110277;28;20139;-66
2022/05/08 01:01:22;;;;;;;18.45;5.60;;;;;;;;;;5110888;28;20074;-66
2022/05/08 01:03:48;;;;;;;17.15;6.10;;;;;;;;;;5110714;28;20050;-66
2022/05/08 01:06:17;;;;;;;12.93;5.88;;;;;;;;;;5093610;28;20039;-66
2022/05/08 01:08:45;;;;;;;14.65;5.07;;;;;;;;;;5109205;28;20063;-67
2022/05/08 01:11:11;;;;;;;13.00;5.80;;;;;;;;;;5112283;28;20420;-66
2022/05/08 01:13:38;;;;;;;12.02;5.15;;;;;;;;;;5112134;28;20040;-67
2022/05/08 01:16:08;;;;;;;17.33;5.47;;;;;;;;;;5109989;28;20047;-67
2022/05/08 01:18:34;;;;;;;13.73;5.38;;;;;;;;;;5111113;28;20032;-66
2022/05/08 01:21:00;;;;;;;11.82;5.68;;;;;;;;;;5110425;28;20039;-67
2022/05/08 01:23:27;;;;;;;11.25;4.88;;;;;;;;;;5109997;28;20044;-67
2022/05/08 01:25:56;;;;;;;15.00;5.60;;;;;;;;;;5111743;28;20071;-67
2022/05/08 01:28:23;;;;;;;20.95;5.68;;;;;;;;;;5109272;28;20115;-66
2022/05/08 01:30:50;;;;;;;15.23;5.22;;;;;;;;;;5111289;28;20035;-67
2022/05/08 01:33:17;;;;;;;13.48;4.65;;;;;;;;;;5111220;28;20351;-66
2022/05/08 01:35:44;;;;;;;20.83;6.85;;;;;;;;;;5110431;28;20043;-66
2022/05/08 01:38:11;;;;;;;16.55;4.97;;;;;;;;;;5110648;27;20123;-66
2022/05/08 01:40:38;;;;;;;13.98;5.18;;;;;;;;;;5111207;28;20082;-66
2022/05/08 01:43:04;;;;;;;15.70;5.32;;;;;;;;;;5109555;28;20047;-66
2022/05/08 01:45:30;;;;;;;22.13;4.95;;;;;;;;;;5111111;28;20043;-66
2022/05/08 01:50:42;;;;;;;13.05;4.70;;;;;;;;;;5107498;28;20115;-66
2022/05/08 01:53:08;;;;;;;12.30;4.88;;;;;;;;;;5109543;28;20050;-68
2022/05/08 01:55:35;;;;;;;15.10;4.25;;;;;;;;;;5110999;28;20071;-66
2022/05/08 01:58:01;;;;;;;10.50;5.38;;;;;;;;;;5109378;28;20048;-66
2022/05/08 02:00:28;;;;;;;16.92;5.63;;;;;;;;;;5109800;28;20036;-68
2022/05/08 02:02:54;;;;;;;8.50;4.45;;;;;;;;;;5110217;28;20047;-66
2022/05/08 02:05:21;;;;;;;15.80;5.00;;;;;;;;;;5109783;28;20040;-66
2022/05/08 02:07:48;;;;;;;15.27;5.45;;;;;;;;;;5105775;28;20481;-66
2022/05/08 02:10:15;;;;;;;10.60;5.05;;;;;;;;;;5105859;28;20131;-66
2022/05/08 02:12:41;;;;;;;12.98;5.13;;;;;;;;;;5108440;28;20539;-66
2022/05/08 02:15:08;;;;;;;10.88;5.05;;;;;;;;;;5108316;28;20071;-66
2022/05/08 02:17:35;;;;;;;11.02;4.85;;;;;;;;;;5109847;28;20508;-66
2022/05/08 02:20:01;;;;;;;9.25;4.80;;;;;;;;;;5107165;28;20071;-66
2022/05/08 02:22:27;;;;;;;10.60;4.45;;;;;;;;;;5107357;28;20036;-65
2022/05/08 02:24:53;;;;;;;14.95;5.95;;;;;;;;;;5102500;28;20038;-66
2022/05/08 02:27:20;;;;;;;10.35;4.65;;;;;;;;;;5088404;28;20051;-66
2022/05/08 02:29:49;;;;;;;9.93;4.53;;;;;;;;;;5108881;28;20062;-66
2022/05/08 02:32:16;;;;;;;12.43;4.97;;;;;;;;;;5105844;28;20043;-66
2022/05/08 02:34:42;;;;;;;11.15;4.13;;;;;;;;;;5106197;28;20036;-66
2022/05/08 02:37:09;;;;;;;10.95;5.30;;;;;;;;;;5108693;28;20289;-66
2022/05/08 02:39:35;;;;;;;12.75;4.07;;;;;;;;;;5109412;28;20056;-66
2022/05/08 02:42:01;;;;;;;12.65;4.97;;;;;;;;;;5106832;28;20114;-66
2022/05/08 02:44:27;;;;;;;16.30;4.72;;;;;;;;;;5109468;27;20085;-66
2022/05/08 02:46:54;;;;;;;8.30;4.53;;;;;;;;;;5110122;28;20032;-65
2022/05/08 02:49:20;;;;;;;13.30;3.72;;;5.50;99.90;;;;;;5106817;28;20044;-65
2022/05/08 02:51:45;;;;;;;11.23;3.80;;;8.00;99.90;;;;;;5107111;28;20070;-66
2022/05/08 02:54:11;;;;;;;8.13;4.63;;;7.70;99.90;;;;;;5107787;28;20115;-65
2022/05/08 02:59:22;;;;;;;13.20;4.63;;;;;;;;;;5109091;28;20086;-66
2022/05/08 03:01:48;;;;;;;9.40;3.40;;;;;;;;;;5091953;28;20040;-65
2022/05/08 03:04:15;;;;;;;12.80;4.28;;;;;;;;;;5108686;28;20165;-66
2022/05/08 03:06:41;;;;;;;8.77;3.47;;;;;;;;;;5105652;28;20448;-66
2022/05/08 03:09:09;;;;;;;11.93;4.25;;;;;;;;;;5108370;28;20032;-66
2022/05/08 03:11:36;;;;;;;8.88;4.18;;;;;;;;;;5103183;28;20035;-66
2022/05/08 03:14:02;;;;;;;13.70;4.25;;;;;;;;;;5109219;28;20572;-66
2022/05/08 03:16:29;;;;;;;10.25;4.60;;;;;;;;;;5108478;28;20088;-66
2022/05/08 03:18:55;;;;;;;13.50;6.18;;;;;;;;;;5106946;28;20119;-66
2022/05/08 03:21:22;;;;;;;13.05;4.80;;;;;;;;;;5104545;28;20032;-65
2022/05/08 03:23:48;;;;;;;11.98;4.75;;;;;;;;;;5109762;28;20108;-66
2022/05/08 03:26:16;;;;;;;9.38;4.25;;;;;;;;;;5085035;28;20074;-66
2022/05/08 03:28:42;;;;;;;8.73;3.97;;;;;;;;;;5108182;28;20039;-66
2022/05/08 03:31:09;;;;;;;8.30;3.72;;;;;;;;;;5106678;28;20092;-65
2022/05/08 03:33:36;;;;;;;8.07;4.25;;;;;;;;;;5101671;28;20483;-66
2022/05/08 03:36:03;;;;;;;17.05;4.00;;;;;;;;;;5106973;28;20454;-66
2022/05/08 03:38:30;;;;;;;7.82;4.18;;;;;;;;;;5108022;28;20138;-68
2022/05/08 03:40:56;;;;;;;6.80;4.10;;;;;;;;;;5107367;28;20047;-67
2022/05/08 03:43:23;;;;;;;9.38;3.95;;;;;;;;;;5074398;28;20044;-65
2022/05/08 03:45:49;;;;;;;7.32;3.67;;;;;;;;;;5108012;28;20507;-65
2022/05/08 03:48:16;;;;;;;11.68;4.70;;;;;;;;;;5108888;28;20412;-68
2022/05/08 03:50:42;;;;;;;9.10;4.32;;;;;;;;;;5107073;28;20035;-68
2022/05/08 03:53:09;;;;;;;7.60;3.13;;;;;;;;;;5107140;28;20045;-65
2022/05/08 03:55:35;;;;;;;8.77;3.80;;;;;;;;;;5107387;28;20065;-65
2022/05/08 03:58:01;;;;;;;16.48;3.97;;;;;;;;;;5109272;28;20047;-65
2022/05/08 04:00:27;;;;;;;6.72;3.88;;;;;;;;;;5105247;28;20394;-65
2022/05/08 04:02:54;;;;;;;7.70;3.60;;;;;;;;;;5106515;28;20061;-65
2022/05/08 04:05:20;;;;;;;10.38;3.75;;;;;;;;;;5106387;28;20039;-66
2022/05/08 04:07:47;;;;;;;9.90;3.85;;;;;;;;;;5107960;28;20036;-65
2022/05/08 04:10:13;;;;;;;12.60;4.00;;;;;;;;;;5105869;28;20238;-65
2022/05/08 04:12:39;;;;;;;12.18;4.30;;;;;;;;;;5108655;28;20067;-68
2022/05/08 04:16:15;;;;;;;15.40;4.13;;;;;;;;;;5108731;28;20040;-66
2022/05/08 04:17:55;;;;;;;5.25;3.50;;;;;;;;;;5106334;28;20520;-66
2022/05/08 04:20:22;;;;;;;6.50;3.50;;;;;;;;;;5106084;28;20040;-67
2022/05/08 04:25:33;;;;;;;8.27;3.45;;;;;;;;;;5099720;28;20060;-66
2022/05/08 04:28:00;;;;;;;11.82;4.32;;;;;;;;;;5102229;28;20496;-66
2022/05/08 04:30:26;;;;;;;15.38;3.85;;;;;;;;;;5106870;28;20544;-66
2022/05/08 04:32:52;;;;;;;7.72;3.42;;;;;;;;;;5104257;28;20048;-66
2022/05/08 04:35:18;;;;;;;7.65;3.15;;;;;;;;;;5106024;28;20050;-66
2022/05/08 04:37:44;;;;;;;11.93;3.63;;;;;;;;;;5105153;28;20043;-66
2022/05/08 04:40:13;;;;;;;7.70;3.65;;;;;;;;;;5104985;28;20125;-66
2022/05/08 04:42:39;;;;;;;11.00;3.33;;;;;;;;;;5106575;28;20046;-66
2022/05/08 04:45:06;;;;;;;10.82;3.22;;;;;;;;;;5109164;28;20385;-65
2022/05/08 04:47:32;;;;;;;7.70;3.30;;;;;;;;;;5102334;28;20039;-66
2022/05/08 04:49:59;;;;;;;8.77;3.90;;;;;;;;;;5103078;28;20085;-66
2022/05/08 04:52:25;;;;;;;9.02;3.05;;;;;;;;;;5103289;28;20112;-66
2022/05/08 04:54:51;;;;;;;3.75;2.72;;;;;;;;;;5107211;28;20054;-66
2022/05/08 04:57:17;;;;;;;7.50;3.22;;;;;;;;;;5100082;28;20587;-66
2022/05/08 04:59:43;;;;;;;8.00;3.45;;;;;;;;;;5109330;28;20035;-66
2022/05/08 05:02:09;;;;;;;5.70;2.75;;;;;;;;;;5102421;28;20032;-66
2022/05/08 05:04:36;;;;;;;9.25;4.00;;;;;;;;;;5104569;28;20058;-66
2022/05/08 05:07:02;;;;;;;13.70;2.83;;;;;;;;;;5107710;28;20119;-66
2022/05/08 05:09:28;;;;;;;6.25;3.08;;;;;;;;;;5100651;28;20063;-66
2022/05/08 05:11:54;;;;;;;7.82;3.65;;;;;;;;;;5103628;28;20039;-66
2022/05/08 05:14:21;;;;;;;6.70;2.97;;;;;;;;;;5107755;28;20142;-66
2022/05/08 05:16:47;;;;;;;9.93;3.88;;;;;;;;;;5106750;28;20047;-66
2022/05/08 05:19:13;;;;;;;5.55;3.15;;;;;;;;;;5105151;28;20035;-66
2022/05/08 05:21:39;;;;;;;11.77;3.45;;;;;;;;;;5098948;28;20036;-66
2022/05/08 05:24:05;;;;;;;9.65;3.13;;;;;;;;;;5098441;28;20105;-66
2022/05/08 05:26:31;;;;;;;7.22;3.42;;;;;;;;;;5104633;28;20741;-66
2022/05/08 05:28:58;;;;;;;11.38;3.78;;;;;;;;;;5099929;28;20044;-66
2022/05/08 05:31:24;;;;;;;7.57;3.13;;;;;;;;;;5103540;28;20039;-66
2022/05/08 05:33:50;;;;;;;7.03;2.78;;;;;;;;;;5103085;27;20279;-66
2022/05/08 05:36:17;;;;;;;6.43;3.30;;;;;;;;;;5101351;27;20036;-66
2022/05/08 05:38:43;;;;;;;9.55;3.17;;;;;;;;;;5099164;28;20056;-66
2022/05/08 05:41:09;;;;;;;5.97;2.40;;;;;;;;;;5108514;28;20055;-66
2022/05/08 05:43:36;;;;;;;6.85;3.42;;;;;;;;;;5098700;28;20036;-66
2022/05/08 05:48:47;;;;;;;6.32;2.75;;;;;;;;;;5103178;28;20562;-66
2022/05/08 05:51:13;;;;;;;8.95;3.80;;;;;;;;;;5094871;28;20043;-66
2022/05/08 05:53:39;;;;;;;6.60;2.90;;;;;;;;;;5106844;28;20059;-66
2022/05/08 05:56:05;;;;;;;5.63;2.90;;;;;;;;;;5103833;28;20032;-66
2022/05/08 05:58:31;;;;;;;7.95;2.92;;;;;;;;;;5104017;27;20044;-66
2022/05/08 06:00:57;;;;;;;6.60;2.83;;;;;;;;;;5105179;28;20036;-67
2022/05/08 06:03:23;;;;;;;5.88;2.80;;;;;;;;;;5107602;28;20046;-66
2022/05/08 06:05:50;;;;;;;7.22;2.70;;;;;;;;;;5108393;28;20149;-66
2022/05/08 06:08:16;;;;;;;11.93;2.80;;;;;;;;;;5108369;28;20080;-66
2022/05/08 06:10:44;;;;;;;12.00;3.55;;;;;;;;;;5109595;28;20389;-67
2022/05/08 06:13:10;;;;;;;7.43;3.13;;;;;;;;;;5087975;28;20130;-66
2022/05/08 06:15:36;;;;;;;6.40;2.90;;;;;;;;;;5090588;28;20088;-66
2022/05/08 06:18:02;;;;;;;8.50;2.80;;;;;;;;;;5102084;28;20052;-66
2022/05/08 06:20:28;;;;;;;12.18;4.15;;;;;;;;;;5090641;28;20036;-66
2022/05/08 06:22:55;;;;;;;8.77;3.15;;;;;;;;;;5106375;28;20040;-67
2022/05/08 06:25:21;;;;;;;9.82;3.53;;;;;;;;;;5107094;28;20048;-67
2022/05/08 06:27:47;;;;;;;6.57;2.22;;;;;;;;;;5092557;28;20047;-66
2022/05/08 06:30:13;;;;;;;7.57;2.58;;;;;;;;;;5104405;28;20092;-66
2022/05/08 06:32:39;;;;;;;8.98;3.25;;;;;;;;;;5110841;28;20032;-66
2022/05/08 06:35:06;;;;;;;6.28;2.58;;;;;;;;;;5105554;28;20618;-66
2022/05/08 06:37:32;;;;;;;5.88;2.67;;;;;;;;;;5097697;28;20101;-66
2022/05/08 06:39:58;;;;;;;8.68;2.60;;;;;;;;;;5099770;28;20043;-66
2022/05/08 06:42:24;;;;;;;8.60;2.80;;;;;;;;;;5102856;28;20043;-67
2022/05/08 06:44:50;;;;;;;9.55;2.40;;;;;;;;;;5109402;28;20119;-66
2022/05/08 06:47:16;;;;;;;7.60;2.42;;;;;;;;;;5108528;28;20044;-66
2022/05/08 06:49:43;;;;;;;6.90;3.45;;;;;;;;;;5107956;28;20111;-67
2022/05/08 06:52:09;;;;;;;5.70;2.40;;;;;;;;;;5109341;28;20055;-66
2022/05/08 06:54:35;;;;;;;8.20;2.85;;;;;;;;;;5108225;28;20078;-66
2022/05/08 06:57:01;;;;;;;7.53;2.72;;;;;;;;;;5108103;28;20039;-66
2022/05/08 07:02:12;;;;;;;8.25;2.75;;;;;;;;;;5109771;28;20122;-66
2022/05/08 07:04:38;;;;;;;6.07;2.47;;;;;;;;;;5106886;28;20184;-67
2022/05/08 07:07:05;;;;;;;8.40;3.72;;;;;;;;;;5109857;28;20050;-66
2022/05/08 07:09:32;;;;;;;9.35;2.60;;;;;;;;;;5107503;28;20048;-67
2022/05/08 07:11:58;;;;;;;6.65;2.60;;;;;;;;;;5109978;28;20078;-67
2022/05/08 07:14:25;;;;;;;10.30;3.60;;;;;;;;;;5107677;28;20040;-67
2022/05/08 07:16:51;;;;;;;7.63;2.85;;;;;;;;;;5109226;28;20050;-67
2022/05/08 07:19:17;;;;;;;12.68;3.03;;;;;;;;;;5107193;28;20088;-66
2022/05/08 07:21:44;;;;;;;11.60;2.90;;;;;;;;;;5107740;28;20039;-66
2022/05/08 07:24:10;;;;;;;9.95;2.88;;;;;;;;;;5109342;28;20032;-67
2022/05/08 07:26:36;;;;;;;8.65;3.10;;;;;;;;;;5108152;28;20065;-67
2022/05/08 07:29:04;;;;;;;8.60;2.90;;;;;;;;;;5108053;28;20113;-66
2022/05/08 07:31:31;;;;;;;7.15;3.25;;;;;;;;;;5108064;28;20597;-66
2022/05/08 07:36:42;;;;;;;7.40;3.28;;;;;;;;;;5108573;28;20130;-66
2022/05/08 07:39:08;;;;;;;8.75;2.63;;;;;;;;;;5107562;28;20058;-67
2022/05/08 07:41:35;;;;;;;8.57;2.25;;;;;;;;;;5094594;28;20046;-66
2022/05/08 07:44:01;;;;;;;6.40;2.33;;;;;;;;;;5092995;28;21435;-67
2022/05/08 07:46:27;;;;;;;5.45;2.17;;;;;;;;;;5104966;28;20386;-67
2022/05/08 07:48:54;;;;;;;9.20;2.70;;;;;;;;;;5106780;28;20096;-67
2022/05/08 07:51:20;;;;;;;7.38;2.58;;;;;;;;;;5106837;28;20059;-67
2022/05/08 07:53:46;;;;;;;8.57;3.47;;;;;;;;;;5109535;28;20123;-66
2022/05/08 07:56:12;;;;;;;7.07;3.03;;;;;;;;;;5108476;28;20610;-67
2022/05/08 07:58:39;;;;;;;10.45;2.90;;;;;;;;;;5109049;28;20567;-67
2022/05/08 08:01:05;;;;;;;7.63;2.83;;;;;;;;;;5108083;28;20485;-67
2022/05/08 08:03:32;;;;;;;8.60;3.38;;;;;;;;;;5108669;28;20052;-68
2022/05/08 08:05:59;;;;;;;7.30;3.17;;;;;;;;;;5104217;28;20043;-67
2022/05/08 08:08:25;;;;;;;4.95;2.55;;;;;;;;;;5093930;28;20083;-67
2022/05/08 08:11:03;;;;;;;6.43;2.88;;;;;;;;;;5096567;28;20183;-67
2022/05/08 08:13:31;;;;;;;9.50;3.10;;;;;;;;;;5103044;28;20073;-67
2022/05/08 08:15:57;;;;;;;6.63;2.83;;;;;;;;;;5106221;28;20408;-67
2022/05/08 08:18:23;;;;;;;18.35;2.92;;;;;;;;;;5099389;28;20035;-67
2022/05/08 08:20:50;;;;;;;8.57;3.10;;;;;;;;;;5094299;28;20107;-66
2022/05/08 08:23:16;;;;;;;11.48;2.85;;;;;;;;;;5104793;28;20040;-67
2022/05/08 08:25:43;;;;;;;10.60;2.78;;;;;;;;;;5092956;28;20040;-67
2022/05/08 08:28:09;;;;;;;5.40;2.33;;;;;;;;;;5080490;28;20126;-68
2022/05/08 08:30:35;;;;;;;6.72;3.58;;;;;;;;;;5097078;28;20040;-67
2022/05/08 08:33:01;;;;;;;7.10;2.75;;;;;;;;;;5093917;28;20040;-67
2022/05/08 08:35:28;;;;;;;7.55;2.55;;;;;;;;;;5100807;28;20130;-67
2022/05/08 08:37:54;;;;;;;7.07;2.67;;;;;;;;;;5106041;28;20461;-67
2022/05/08 08:40:21;;;;;;;8.25;2.88;;;;;;;;;;5102858;28;20055;-67
2022/05/08 08:42:47;;;;;;;11.05;3.40;;;;;;;;;;5105712;28;20078;-67
2022/05/08 08:48:14;;;;;;;11.02;3.47;;;;;;;;;;5106215;28;20056;-66
2022/05/08 08:50:40;;;;;;;6.10;2.72;;;;;;;;;;5105753;28;20035;-67
2022/05/08 08:53:06;;;;;;;9.00;2.67;;;;;;;;;;5102857;28;20097;-65
2022/05/08 08:55:33;;;;;;;8.27;2.60;;;;;;;;;;5083246;28;20487;-66
2022/05/08 08:58:00;;;;;;;11.50;3.58;;;;;;;;;;5107810;28;20044;-65
2022/05/08 09:00:27;;;;;;;11.30;3.00;;;;;;;;;;5106210;28;20493;-65
2022/05/08 09:02:55;;;;;;;6.40;3.33;;;;;;;;;;5105395;28;20043;-65
2022/05/08 09:05:21;;;;;;;9.48;2.78;;;;;;;;;;5108517;28;20389;-68
2022/05/08 09:07:48;;;;;;;9.50;2.63;;;;;;;;;;5108895;28;20043;-65
2022/05/08 09:10:14;;;;;;;4.93;2.28;;;;;;;;;;5103089;28;20039;-65
2022/05/08 09:12:45;;;;;;;7.03;3.20;;;;;;;;;;5107214;28;20048;-67
2022/05/08 09:15:18;;;;;;;7.25;2.88;;;;;;;;;;5111919;28;20547;-66
2022/05/08 09:17:45;;;;;;;10.60;2.53;;;;;;;;;;5102364;28;20036;-67
2022/05/08 09:20:29;;;;;;;6.82;2.35;;;;;;;;;;5111136;28;20114;-66
2022/05/08 09:23:15;;;;;;;5.35;2.25;;;;;;;;;;5106013;28;20028;-66
2022/05/08 09:25:45;;;;;;;11.23;3.33;;;;;;;;;;5103988;28;20047;-66
2022/05/08 09:28:12;;;;;;;6.45;2.60;;;;;;;;;;5111306;28;20047;-66
2022/05/08 09:30:57;;;;;;;6.32;2.63;;;;;;;;;;5110945;28;20100;-66
2022/05/08 09:33:24;;;;;;;9.13;3.08;;;;;;;;;;5109624;28;20495;-66
2022/05/08 09:35:50;;;;;;;9.75;2.55;;;;;;;;;;5109304;28;20078;-66
2022/05/08 09:38:16;;;;;;;11.02;3.67;;;;;;;;;;5107666;28;20046;-67
2022/05/08 09:40:45;;;;;;;10.05;2.80;;;;;;;;;;5108653;28;20481;-66
2022/05/08 09:43:28;;;;;;;8.82;2.58;;;;;;;;;;5110519;28;20056;-66
2022/05/08 09:45:58;;;;;;;11.52;3.35;;;;;;;;;;5111084;28;20489;-66
2022/05/08 09:48:31;;;;;;;10.85;2.92;;;;;;;;;;5110587;28;20078;-67
2022/05/08 09:50:58;;;;;;;;;;;;;;;;;;5110283;28;20419;-66
2022/05/08 09:53:24;;;;;;;8.10;2.20;;;;;;;;;;5109409;28;19945;-66
2022/05/08 09:55:54;;;;;;;11.38;3.08;;;;;;;;;;5109926;28;20431;-66
2022/05/08 09:58:21;;;;;;;8.68;2.55;;;;;;;;;;5108045;28;20455;-66
2022/05/08 10:00:48;;;;;;;9.70;3.00;;;;;;;;;;5109711;28;20036;-66
2022/05/08 10:03:18;;;;;;;5.53;2.63;;;;;;;;;;5110417;28;20063;-66
2022/05/08 10:05:44;;;;;;;5.07;3.10;;;;;;;;;;5109487;28;20075;-66
2022/05/08 10:08:13;;;;;;;14.70;2.90;;;;;;;;;;5110152;28;20044;-66
2022/05/08 10:16:48;;;;;;;8.48;2.67;;;;;;;;;;5101182;28;20088;-66
2022/05/08 10:19:17;;;;;;;6.03;2.15;;;;;;;;;;5108880;28;20040;-67
2022/05/08 10:22:03;;;;;;;8.40;2.38;;;;;;;;;;5109148;28;20032;-67
2022/05/08 10:24:30;;;;;;;8.45;2.58;;;;;;;;;;5107357;28;20047;-66
2022/05/08 10:27:14;;;;;;;13.15;3.20;;;;;;;;;;5106680;28;20043;-66
2022/05/08 10:29:41;;;;;;;15.48;4.72;;;;;;;;;;5109594;28;20561;-66
2022/05/08 10:32:10;;;;;;;9.27;2.78;;;;;;;;;;5106537;28;20035;-66
2022/05/08 10:34:43;;;;;;;4.97;2.70;;;;;;;;;;5090902;28;20039;-66
2022/05/08 10:37:12;;;;;;;7.97;2.90;;;;;;;;;;5110655;28;20075;-66
2022/05/08 10:39:38;;;;;;;5.32;3.03;;;;;;;;;;5108581;28;20127;-67
2022/05/08 10:42:05;;;;;;;10.40;3.20;;;;;;;;;;5107624;28;20149;-66
2022/05/08 10:44:39;;;;;;;10.73;2.90;;;;;;;;;;5109499;28;20043;-66
2022/05/08 10:47:24;;;;;;;8.52;2.80;;;;;;;;;;5110047;28;20213;-66
2022/05/08 10:49:50;;;;;;;11.85;3.42;;;;;;;;;;5104595;28;20485;-66
2022/05/08 10:52:16;;;;;;;12.02;3.05;;;;;;;;;;5109895;28;20545;-67
2022/05/08 10:54:56;;;;;;;9.88;2.47;;;;;;;;;;5109270;28;20043;-67
2022/05/08 10:57:29;;;;;;;6.82;3.25;;;;;;;;;;5106084;28;20183;-66
2022/05/08 10:59:55;;;;;;;10.05;2.58;;;;;;;;;;5109251;28;20071;-66
2022/05/08 11:02:40;;;;;;;12.05;3.47;;;;;;;;;;5109768;28;20092;-67
2022/05/08 11:05:09;;;;;;;6.68;2.45;;;;;;;;;;5107161;28;20028;-67
2022/05/08 11:07:38;;;;;;;6.15;2.47;;;;;;;;;;5086290;28;20082;-66
2022/05/08 11:10:14;;;;;;;10.10;3.33;;;;;;;;;;5108873;28;20101;-67
2022/05/08 11:13:02;;;;;;;7.10;3.17;;;;;;;;;;5107474;28;20039;-66
2022/05/08 11:15:55;;;;;;;6.95;3.10;;;;;;;;;;5086487;28;20048;-67
2022/05/08 11:18:25;;;;;;;7.15;3.05;;;;;;;;;;5107572;28;20058;-67
2022/05/08 11:20:57;;;;;;;11.82;3.65;;;;;;;;;;5105478;28;20039;-67
2022/05/08 11:23:28;;;;;;;7.30;2.63;;;;;;;;;;5101323;28;20434;-66
2022/05/08 11:25:58;;;;;;;9.95;2.70;;;;;;;;;;5107655;28;20036;-66
2022/05/08 11:28:25;;;;;;;8.15;2.50;;;;;;;;;;5109224;28;20659;-66
2022/05/08 11:30:52;;;;;;;15.23;3.90;;;;;;;;;;5108405;28;20097;-66
2022/05/08 11:36:06;;;;;;;8.73;3.10;;;;;;;;;;5106541;28;20043;-66
2022/05/08 11:38:46;;;;;;;11.95;2.80;;;;;;;;;;5107084;28;20046;-66
2022/05/08 11:41:13;;;;;;;13.52;3.25;;;;;;;;;;5108526;28;20043;-66
2022/05/08 11:43:40;;;;;;;8.10;2.92;;;;;;;;;;5107960;28;20115;-66
2022/05/08 11:46:09;;;;;;;8.07;2.97;;;;;;;;;;5107827;28;20506;-66
2022/05/08 11:48:42;;;;;;;5.18;2.60;;;;;;;;;;5109781;28;20047;-66
2022/05/08 11:51:10;;;;;;;5.43;2.80;;;;;;;;;;5082397;28;20052;-66
2022/05/08 11:53:40;;;;;;;7.43;2.92;;;;;;;;;;5109738;27;20046;-66
2022/05/08 11:56:26;;;;;;;7.80;2.95;;;;;;;;;;5108011;28;20147;-66
2022/05/08 11:58:52;;;;;;;5.90;2.90;;;;;;;;;;5107932;28;20082;-67
2022/05/08 12:01:25;;;;;;;5.82;2.58;;;;;;;;;;5102284;28;20169;-66
2022/05/08 12:03:51;;;;;;;11.95;3.10;;;;;;;;;;5108017;28;20035;-67
2022/05/08 12:06:17;;;;;;;7.53;2.45;;;;;;;;;;5108192;28;20035;-67
2022/05/08 12:08:43;;;;;;;5.70;2.83;;;;;;;;;;5107599;28;20404;-66
2022/05/08 12:11:28;;;;;;;10.73;2.95;;;;;;;;;;5104870;28;20043;-67
2022/05/08 12:14:01;;;;;;;12.18;4.00;;;;;;;;;;5089706;28;20084;-67
2022/05/08 12:16:28;;;;;;;6.70;2.55;;;;;;;;;;5105762;28;20031;-67
2022/05/08 12:19:11;;;;;;;8.73;3.88;;;;;;;;;;5106347;28;20133;-66
2022/05/08 12:21:38;;;;;;;10.45;3.65;;;;;;;;;;5103790;28;20047;-67
2022/05/08 12:24:23;;;;;;;10.30;3.95;;;;;;;;;;5108779;28;20039;-66
2022/05/08 12:26:50;;;;;;;4.97;2.60;;;;;;;;;;5105635;28;20385;-67
2022/05/08 12:29:23;;;;;;;11.18;3.47;;;;;;;;;;5108245;28;20046;-66
2022/05/08 12:31:52;;;;;;;;;;;;;;;;;;5108461;28;20051;-67
2022/05/08 12:34:19;;;;;;;7.47;2.95;;;;;;;;;;5107840;28;19919;-66
2022/05/08 12:36:45;;;;;;;8.38;2.97;;;;;;;;;;5105131;28;20032;-67
2022/05/08 12:39:12;;;;;;;11.48;3.22;;;;;;;;;;5098044;28;20042;-67
2022/05/08 12:41:38;;;;;;;7.63;2.97;;;;;;;;;;5086139;28;20138;-67
2022/05/08 12:44:05;;;;;;;11.23;3.50;;;;;;;;;;5100290;28;20043;-67
2022/05/08 12:46:32;;;;;;;7.00;3.05;;;;;;;;;;5101743;28;20035;-67
2022/05/08 12:49:04;;;;;;;6.95;2.72;;;;;;;;;;5095937;28;20051;-66
2022/05/08 12:51:31;;;;;;;4.57;2.22;;;;;;;;;;5102924;28;20067;-67
2022/05/08 12:53:58;;;;;;;11.73;2.90;;;;;;;;;;5093636;28;20040;-67
2022/05/08 12:56:24;;;;;;;7.68;3.05;;;;;;;;;;5089859;28;20048;-67
2022/05/08 13:01:35;;;;;;;8.95;3.05;;;;;;;;;;5100584;28;20078;-67
2022/05/08 13:04:03;;;;;;;6.68;3.40;;;;;;;;;;5091438;28;20378;-67
2022/05/08 13:06:29;;;;;;;14.60;4.18;;;;;;;;;;5091811;28;20683;-67
2022/05/08 13:08:56;;;;;;;6.35;2.30;;;;;;;;;;5104196;28;20459;-68
2022/05/08 13:11:22;;;;;;;10.75;2.90;;;;;;;;;;5099950;28;20562;-68
2022/05/08 13:13:48;;;;;;;8.23;2.63;;;;;;;;;;5098333;28;20047;-68
2022/05/08 13:16:15;;;;;;;8.05;3.67;;;;;;;;;;5092430;28;20039;-68
2022/05/08 13:18:41;;;;;;;11.18;2.58;;;;;;;;;;5080073;28;20049;-67
2022/05/08 13:21:08;;;;;;;10.05;2.90;;;;;;;;;;5095606;27;20031;-68
2022/05/08 13:23:34;;;;;;;10.52;2.15;;;;;;;;;;5102579;28;20516;-67
2022/05/08 13:26:00;;;;;;;5.07;2.83;;;;;;;;;;5105216;28;20527;-68
2022/05/08 13:28:29;;;;;;;4.03;2.20;;;;;;;;;;5101967;28;20413;-67
2022/05/08 13:30:56;;;;;;;11.38;2.75;;;;;;;;;;5080696;28;20526;-68
2022/05/08 13:33:24;;;;;;;5.47;2.63;;;;;;;;;;5099944;28;20518;-68
2022/05/08 13:35:51;;;;;;;6.15;2.53;;;;;;;;;;5097536;28;20048;-69
2022/05/08 13:38:18;;;;;;;5.15;2.65;;;;;;;;;;5103996;28;20050;-68
2022/05/08 13:40:45;;;;;;;7.78;2.60;;;;;;;;;;5104706;28;20055;-68
2022/05/08 13:43:11;;;;;;;8.65;2.30;;;;;;;;;;5103989;28;20560;-68
2022/05/08 13:45:37;;;;;;;8.45;3.17;;;;;;;;;;5105329;28;20035;-68
2022/05/08 13:48:03;;;;;;;7.78;2.45;;;;;;;;;;5109056;28;20035;-68
2022/05/08 13:50:30;;;;;;;6.60;2.78;;;;;;;;;;5107110;27;20036;-68
2022/05/08 13:52:56;;;;;;;5.53;2.22;;;;;;;;;;5105363;28;20183;-68
2022/05/08 13:55:23;;;;;;;6.60;2.10;;;;;;;;;;5088711;28;20055;-68
2022/05/08 13:57:53;;;;;;;13.90;3.13;;;;;;;;;;5087568;28;20044;-68
2022/05/08 14:00:21;;;;;;;11.82;3.08;;;;;;;;;;5100446;28;20042;-68
2022/05/08 14:02:48;;;;;;;6.68;2.50;;;;;;;;;;5106942;28;20043;-68
2022/05/08 14:05:15;;;;;;;11.25;2.95;;;;;;;;;;5104156;27;20148;-68
2022/05/08 14:07:41;;;;;;;7.75;2.55;;;;;;;;;;5105693;28;20036;-68
2022/05/08 14:10:08;;;;;;;9.68;2.70;;;;;;;;;;5103024;28;20047;-68
2022/05/08 14:12:37;;;;;;;6.25;2.65;;;;;;;;;;5107672;27;20139;-68
2022/05/08 14:15:04;;;;;;;8.25;2.28;;;;;;;;;;5105554;28;20058;-68
2022/05/08 14:17:30;;;;;;;12.15;3.85;;;;;;;;;;5105945;28;20047;-68
2022/05/08 14:19:58;;;;;;;6.55;2.42;;;;;;;;;;5105681;27;20389;-69
2022/05/08 14:22:25;;;;;;;5.57;2.22;;;;;;;;;;5105463;28;20528;-68
2022/05/08 14:24:52;;;;;;;12.27;2.60;;;;;;;;;;5088450;28;20058;-69
2022/05/08 14:27:18;;;;;;;10.55;3.28;;;;;;;;;;5107558;28;20043;-68
2022/05/08 14:29:44;;;;;;;6.03;2.58;;;;;;;;;;5106846;28;20167;-68
2022/05/08 14:37:40;;;;;;;11.07;2.97;;;;;;;;;;5099816;28;20058;-69
2022/05/08 14:40:08;;;;;;;7.82;3.22;;;;;;;;;;5104021;28;20539;-68
2022/05/08 14:42:34;;;;;;;7.63;3.08;;;;;;;;;;5088435;28;20081;-68
2022/05/08 14:45:01;;;;;;;5.47;2.78;;;;;;;;;;5105355;28;20051;-68
2022/05/08 14:47:29;;;;;;;18.67;4.07;;;;;;;;;;5107380;27;20115;-68
2022/05/08 14:49:55;;;;;;;6.85;2.83;;;;;;;;;;5103724;28;20157;-68
2022/05/08 14:52:22;;;;;;;8.90;2.85;;;;;;;;;;5100279;28;20071;-68
2022/05/08 14:54:48;;;;;;;5.88;2.60;;;;;;;;;;5085168;28;20039;-68
2022/05/08 14:57:15;;;;;;;7.05;3.17;;;;;;;;;;5093071;28;20062;-69
2022/05/08 14:59:41;;;;;;;11.45;2.95;;;;;;;;;;5104592;27;20031;-68
2022/05/08 15:02:07;;;;;;;8.05;2.67;;;;;;;;;;5105858;28;20032;-68
2022/05/08 15:04:34;;;;;;;9.80;3.28;;;;;;;;;;5103852;28;20496;-69
2022/05/08 15:07:01;;;;;;;10.15;3.00;;;;;;;;;;5103039;28;20035;-68
2022/05/08 15:09:28;;;;;;;21.60;4.30;;;;;;;;;;5106635;28;20039;-69
2022/05/08 15:11:55;;;;;;;10.65;2.58;;;;;;;;;;5099804;28;20571;-69
2022/05/08 15:14:21;;;;;;;15.45;5.20;;;;;;;;;;5095713;28;20047;-69